• Join FlightAware (Why Join?)
  • Login
  • US Flag 
09:20PM EDT


 

Airport Tracker/Info


-or-


 

Live Flight TrackerFlight Track Log ✈ GJS3657 ✈ 30-Jul-2013 ✈ KIAD - KGSO

Flight Track Log - Related Links

Times and Time Zones

All times are in EDT time to prevent confusion due to time zone crossing. See the GJS3657 flight status page for this flight to view local times or setup timezone preferences in your user account.

Time Position Orientation Groundspeed Altitude Reporting Facility
EDT Latitude Longitude Course Direction KTS MPH feet Rate Location/Type
05:30PM 38.9167 -77.4333 141° Southeast 155 178 1,700  Level Potomac TRACON
05:31PM 38.8667 -77.4167 165° South 208 239 3,600 2,220 Climbing Potomac TRACON
05:32PM 38.8000 -77.4167 180° South 249 287 6,200 2,460 Climbing Potomac TRACON
05:33PM 38.6706 -77.7119 189° South  Level Estimated
05:33PM 38.7333 -77.4500 201° Southwest 280 322 8,600  Level Potomac TRACON
05:34PM 38.6013 -77.7746 185° South  Level Estimated
05:34PM 38.6667 -77.5167 218° Southwest 291 335 10,000  Level Potomac TRACON
05:34PM 38.6239 -77.5742 226° Southwest 285 328 10,100 1,140 Climbing Washington Center
05:35PM 38.5353 -77.7064 141° Southeast  Level FlightAware Approximate
05:35PM 38.5728 -77.6469 228° Southwest 290 334 12,000  Level Washington Center
05:36PM 38.4953 -77.6661 191° South 319 367 14,200 2,280 Climbing Washington Center
05:37PM 38.4678 -77.5672 110° East 359 413 16,600 1,980 Climbing Washington Center
05:38PM 38.4189 -77.4892 129° Southeast 336 387 18,100 1,680 Climbing Washington Center
05:39PM 38.3389 -77.5347 204° Southwest 228 262 20,100 1,740 Climbing Washington Center
05:40PM 38.2811 -77.6311 233° Southwest 228 262 21,700 960 Climbing Washington Center
05:41PM 38.2208 -77.7431 236° Southwest 318 366 22,000 120 Climbing Washington Center
05:42PM 38.1622 -77.8628 238° Southwest 362 417 22,000  Level Washington Center
05:43PM 38.1014 -77.9825 237° Southwest 391 450 22,000  Level Washington Center
05:44PM 38.0408 -78.0992 237° Southwest 398 458 22,000  Level Washington Center
05:45PM 37.9800 -78.2106 235° Southwest 403 464 22,000  Level Washington Center
05:46PM 37.9067 -78.3158 229° Southwest 403 464 22,000  Level Washington Center
05:47PM 37.8269 -78.4286 228° Southwest 403 464 22,000  Level Washington Center
05:48PM 37.7533 -78.5336 228° Southwest 403 464 22,000  Level Washington Center
05:49PM 37.6886 -78.6256 228° Southwest 393 452 22,000  Level Washington Center
05:50PM 37.6258 -78.7147 228° Southwest 366 421 22,000  Level Washington Center
05:51PM 37.5672 -78.7961 228° Southwest 355 409 22,000  Level Washington Center
05:52PM 37.5022 -78.8903 229° Southwest 355 409 22,000  Level Washington Center
05:53PM 37.4394 -78.9764 227° Southwest 355 409 22,000  Level Washington Center
05:54PM 37.3742 -79.0678 228° Southwest 355 409 22,000  Level Washington Center
05:55PM 37.3044 -79.1664 228° Southwest 355 409 22,000  Level Washington Center
05:56PM 37.2392 -79.2547 227° Southwest 355 409 22,000  Level Washington Center
05:57PM 37.1778 -79.3481 230° Southwest 355 409 22,000  Level Washington Center
05:58PM 37.0819 -79.4111 208° Southwest 367 422 22,000 -540 Level Washington Center
05:59PM 36.9739 -79.4681 203° Southwest 393 452 21,000 -1,620 Descending Washington Center
06:00PM 36.8844 -79.5208 205° Southwest 404 465 18,800 -2,100 Descending Washington Center
06:01PM 36.7889 -79.5731 204° Southwest 398 458 16,800 -1,980 Descending Washington Center
06:03PM 36.6967 -79.6077 208° Southwest  Level FlightAware Approximate
06:10PM 36.1599 -79.9034 202° Southwest  Level FlightAware Approximate
06:11PM 36.1013 -79.9411 202° Southwest  Level Estimated
06:12PM 36.1013 -79.9411 28° Northeast  Level Estimated
06:13PM 36.1000 -79.9333 28° Northeast  Level FlightAware Approximate
06:14PM 36.1013 -79.9411 28° Northeast  Level Estimated